sensor_id;sensor_type;location;lat;lon;timestamp;temperature;humidity
17178;DHT22;8704;52.006;4.374;2023-04-24T00:00:18;10.00;99.90
17178;DHT22;8704;52.006;4.374;2023-04-24T00:02:46;10.00;99.90
17178;DHT22;8704;52.006;4.374;2023-04-24T00:05:15;10.10;99.90
17178;DHT22;8704;52.006;4.374;2023-04-24T00:07:44;10.40;99.90
17178;DHT22;8704;52.006;4.374;2023-04-24T00:10:13;10.00;99.90
17178;DHT22;8704;52.006;4.374;2023-04-24T00:12:41;10.00;99.90
17178;DHT22;8704;52.006;4.374;2023-04-24T00:15:10;10.10;99.90
17178;DHT22;8704;52.006;4.374;2023-04-24T00:17:38;10.10;99.90
17178;DHT22;8704;52.006;4.374;2023-04-24T00:20:07;10.00;99.90
17178;DHT22;8704;52.006;4.374;2023-04-24T00:22:36;10.00;99.90
17178;DHT22;8704;52.006;4.374;2023-04-24T00:25:05;10.00;99.90
17178;DHT22;8704;52.006;4.374;2023-04-24T00:27:35;10.00;99.90
17178;DHT22;8704;52.006;4.374;2023-04-24T00:30:05;10.00;99.90
17178;DHT22;8704;52.006;4.374;2023-04-24T00:32:33;10.00;99.90
17178;DHT22;8704;52.006;4.374;2023-04-24T00:35:01;9.90;99.90
17178;DHT22;8704;52.006;4.374;2023-04-24T00:37:29;10.00;99.90
17178;DHT22;8704;52.006;4.374;2023-04-24T00:39:57;9.90;99.90
17178;DHT22;8704;52.006;4.374;2023-04-24T00:42:25;9.90;99.90
17178;DHT22;8704;52.006;4.374;2023-04-24T00:44:55;10.00;99.90
17178;DHT22;8704;52.006;4.374;2023-04-24T00:47:24;9.90;99.90
17178;DHT22;8704;52.006;4.374;2023-04-24T00:49:53;10.00;99.90
17178;DHT22;8704;52.006;4.374;2023-04-24T00:52:20;9.90;99.90
17178;DHT22;8704;52.006;4.374;2023-04-24T00:54:51;10.00;99.90
17178;DHT22;8704;52.006;4.374;2023-04-24T00:57:19;9.90;84.60
17178;DHT22;8704;52.006;4.374;2023-04-24T00:59:48;10.00;53.70
17178;DHT22;8704;52.006;4.374;2023-04-24T01:02:17;9.80;13.60
17178;DHT22;8704;52.006;4.374;2023-04-24T01:04:46;9.70;1.00
17178;DHT22;8704;52.006;4.374;2023-04-24T01:07:14;9.90;1.00
17178;DHT22;8704;52.006;4.374;2023-04-24T01:09:43;9.90;1.00
17178;DHT22;8704;52.006;4.374;2023-04-24T01:12:13;10.40;1.00
17178;DHT22;8704;52.006;4.374;2023-04-24T01:14:42;9.80;1.00
17178;DHT22;8704;52.006;4.374;2023-04-24T01:17:10;9.90;1.00
17178;DHT22;8704;52.006;4.374;2023-04-24T01:19:40;10.00;8.20
17178;DHT22;8704;52.006;4.374;2023-04-24T01:22:11;9.80;1.50
17178;DHT22;8704;52.006;4.374;2023-04-24T01:24:39;9.80;1.00
17178;DHT22;8704;52.006;4.374;2023-04-24T01:27:08;9.90;16.10
17178;DHT22;8704;52.006;4.374;2023-04-24T01:29:36;9.80;24.10
17178;DHT22;8704;52.006;4.374;2023-04-24T01:32:05;9.80;41.20
17178;DHT22;8704;52.006;4.374;2023-04-24T01:34:34;9.80;90.70
17178;DHT22;8704;52.006;4.374;2023-04-24T01:37:02;9.80;99.90
17178;DHT22;8704;52.006;4.374;2023-04-24T01:39:33;9.80;99.90
17178;DHT22;8704;52.006;4.374;2023-04-24T01:42:01;9.90;99.90
17178;DHT22;8704;52.006;4.374;2023-04-24T01:44:30;9.80;99.90
17178;DHT22;8704;52.006;4.374;2023-04-24T01:46:58;9.80;99.90
17178;DHT22;8704;52.006;4.374;2023-04-24T01:49:28;9.70;99.90
17178;DHT22;8704;52.006;4.374;2023-04-24T01:51:56;9.80;99.90
17178;DHT22;8704;52.006;4.374;2023-04-24T01:54:24;9.80;99.90
17178;DHT22;8704;52.006;4.374;2023-04-24T01:56:53;9.90;99.90
17178;DHT22;8704;52.006;4.374;2023-04-24T01:59:21;9.70;99.90
17178;DHT22;8704;52.006;4.374;2023-04-24T02:01:51;10.00;91.30
17178;DHT22;8704;52.006;4.374;2023-04-24T02:04:19;9.80;99.90
17178;DHT22;8704;52.006;4.374;2023-04-24T02:06:47;10.20;99.90
17178;DHT22;8704;52.006;4.374;2023-04-24T02:09:15;9.80;95.50
17178;DHT22;8704;52.006;4.374;2023-04-24T02:11:43;9.70;99.90
17178;DHT22;8704;52.006;4.374;2023-04-24T02:14:12;9.70;99.90
17178;DHT22;8704;52.006;4.374;2023-04-24T02:16:40;9.70;99.90
17178;DHT22;8704;52.006;4.374;2023-04-24T02:19:09;9.70;90.10
17178;DHT22;8704;52.006;4.374;2023-04-24T02:21:37;9.70;73.50
17178;DHT22;8704;52.006;4.374;2023-04-24T02:24:05;9.70;35.80
17178;DHT22;8704;52.006;4.374;2023-04-24T02:26:33;9.70;46.20
17178;DHT22;8704;52.006;4.374;2023-04-24T02:29:01;9.70;99.90
17178;DHT22;8704;52.006;4.374;2023-04-24T02:31:30;9.70;59.70
17178;DHT22;8704;52.006;4.374;2023-04-24T02:33:58;9.70;51.50
17178;DHT22;8704;52.006;4.374;2023-04-24T02:36:26;9.70;1.00
17178;DHT22;8704;52.006;4.374;2023-04-24T02:38:54;9.70;1.00
17178;DHT22;8704;52.006;4.374;2023-04-24T02:41:22;9.50;1.00
17178;DHT22;8704;52.006;4.374;2023-04-24T02:43:50;9.50;1.00
17178;DHT22;8704;52.006;4.374;2023-04-24T02:46:18;9.50;1.00
17178;DHT22;8704;52.006;4.374;2023-04-24T02:48:47;9.40;1.00
17178;DHT22;8704;52.006;4.374;2023-04-24T02:51:15;9.50;1.00
17178;DHT22;8704;52.006;4.374;2023-04-24T02:53:43;9.80;1.00
17178;DHT22;8704;52.006;4.374;2023-04-24T02:56:11;9.50;1.00
17178;DHT22;8704;52.006;4.374;2023-04-24T02:58:39;9.50;1.00
17178;DHT22;8704;52.006;4.374;2023-04-24T03:01:08;9.50;1.00
17178;DHT22;8704;52.006;4.374;2023-04-24T03:03:37;10.70;1.00
17178;DHT22;8704;52.006;4.374;2023-04-24T03:06:07;9.50;1.00
17178;DHT22;8704;52.006;4.374;2023-04-24T03:08:35;9.50;1.00
17178;DHT22;8704;52.006;4.374;2023-04-24T03:11:04;9.50;1.00
17178;DHT22;8704;52.006;4.374;2023-04-24T03:13:32;9.50;1.00
17178;DHT22;8704;52.006;4.374;2023-04-24T03:16:00;9.50;1.00
17178;DHT22;8704;52.006;4.374;2023-04-24T03:18:28;9.50;1.00
17178;DHT22;8704;52.006;4.374;2023-04-24T03:20:56;9.50;1.00
17178;DHT22;8704;52.006;4.374;2023-04-24T03:23:25;9.50;1.00
17178;DHT22;8704;52.006;4.374;2023-04-24T03:25:53;9.50;25.10
17178;DHT22;8704;52.006;4.374;2023-04-24T03:28:21;9.70;67.20
17178;DHT22;8704;52.006;4.374;2023-04-24T03:30:49;9.50;98.20
17178;DHT22;8704;52.006;4.374;2023-04-24T03:33:17;9.40;93.80
17178;DHT22;8704;52.006;4.374;2023-04-24T03:35:45;9.50;52.00
17178;DHT22;8704;52.006;4.374;2023-04-24T03:38:13;9.90;58.60
17178;DHT22;8704;52.006;4.374;2023-04-24T03:40:42;9.40;34.10
17178;DHT22;8704;52.006;4.374;2023-04-24T03:43:10;9.40;40.30
17178;DHT22;8704;52.006;4.374;2023-04-24T03:45:38;9.40;13.60
17178;DHT22;8704;52.006;4.374;2023-04-24T03:48:06;9.60;1.00
17178;DHT22;8704;52.006;4.374;2023-04-24T03:50:35;9.40;1.00
17178;DHT22;8704;52.006;4.374;2023-04-24T03:53:03;9.40;1.00
17178;DHT22;8704;52.006;4.374;2023-04-24T03:55:31;9.50;1.00
17178;DHT22;8704;52.006;4.374;2023-04-24T03:58:00;9.50;1.00
17178;DHT22;8704;52.006;4.374;2023-04-24T04:00:28;9.40;1.00
17178;DHT22;8704;52.006;4.374;2023-04-24T04:03:00;9.40;18.10
17178;DHT22;8704;52.006;4.374;2023-04-24T04:05:28;9.60;25.50
17178;DHT22;8704;52.006;4.374;2023-04-24T04:07:56;9.40;34.50
17178;DHT22;8704;52.006;4.374;2023-04-24T04:10:24;9.50;10.40
17178;DHT22;8704;52.006;4.374;2023-04-24T04:12:52;9.60;63.40
17178;DHT22;8704;52.006;4.374;2023-04-24T04:15:22;9.50;99.90
17178;DHT22;8704;52.006;4.374;2023-04-24T04:17:50;9.50;99.90
17178;DHT22;8704;52.006;4.374;2023-04-24T04:20:18;9.50;99.90
17178;DHT22;8704;52.006;4.374;2023-04-24T04:22:46;9.40;99.90
17178;DHT22;8704;52.006;4.374;2023-04-24T04:25:14;9.50;99.90
17178;DHT22;8704;52.006;4.374;2023-04-24T04:27:42;9.40;99.90
17178;DHT22;8704;52.006;4.374;2023-04-24T04:30:10;9.40;99.90
17178;DHT22;8704;52.006;4.374;2023-04-24T04:32:40;9.40;99.90
17178;DHT22;8704;52.006;4.374;2023-04-24T04:35:08;9.30;99.90
17178;DHT22;8704;52.006;4.374;2023-04-24T04:37:36;9.30;99.90
17178;DHT22;8704;52.006;4.374;2023-04-24T04:40:05;9.50;99.90
17178;DHT22;8704;52.006;4.374;2023-04-24T04:42:34;9.20;99.90
17178;DHT22;8704;52.006;4.374;2023-04-24T04:45:02;9.20;99.90
17178;DHT22;8704;52.006;4.374;2023-04-24T04:47:30;9.10;99.90
17178;DHT22;8704;52.006;4.374;2023-04-24T04:50:00;9.10;99.90
17178;DHT22;8704;52.006;4.374;2023-04-24T04:52:30;9.00;52.80
17178;DHT22;8704;52.006;4.374;2023-04-24T04:54:58;9.00;4.20
17178;DHT22;8704;52.006;4.374;2023-04-24T04:57:26;9.00;7.10
17178;DHT22;8704;52.006;4.374;2023-04-24T04:59:54;9.00;1.00
17178;DHT22;8704;52.006;4.374;2023-04-24T05:02:22;8.90;1.00
17178;DHT22;8704;52.006;4.374;2023-04-24T05:04:51;8.90;1.00
17178;DHT22;8704;52.006;4.374;2023-04-24T05:07:20;8.90;1.00
17178;DHT22;8704;52.006;4.374;2023-04-24T05:09:48;8.90;7.10
17178;DHT22;8704;52.006;4.374;2023-04-24T05:12:18;8.90;19.70
17178;DHT22;8704;52.006;4.374;2023-04-24T05:14:46;8.90;42.60
17178;DHT22;8704;52.006;4.374;2023-04-24T05:17:14;8.80;1.00
17178;DHT22;8704;52.006;4.374;2023-04-24T05:19:42;9.10;1.00
17178;DHT22;8704;52.006;4.374;2023-04-24T05:22:10;8.90;1.00
17178;DHT22;8704;52.006;4.374;2023-04-24T05:24:40;8.80;1.00
17178;DHT22;8704;52.006;4.374;2023-04-24T05:27:08;8.80;1.00
17178;DHT22;8704;52.006;4.374;2023-04-24T05:29:36;8.80;1.00
17178;DHT22;8704;52.006;4.374;2023-04-24T05:32:04;8.80;1.00
17178;DHT22;8704;52.006;4.374;2023-04-24T05:34:32;8.70;1.00
17178;DHT22;8704;52.006;4.374;2023-04-24T05:37:00;8.70;1.00
17178;DHT22;8704;52.006;4.374;2023-04-24T05:39:28;8.80;1.00
17178;DHT22;8704;52.006;4.374;2023-04-24T05:41:57;8.80;1.00
17178;DHT22;8704;52.006;4.374;2023-04-24T05:44:26;8.70;1.00
17178;DHT22;8704;52.006;4.374;2023-04-24T05:46:54;8.90;1.00
17178;DHT22;8704;52.006;4.374;2023-04-24T05:49:22;8.70;1.00
17178;DHT22;8704;52.006;4.374;2023-04-24T05:51:50;8.70;1.00
17178;DHT22;8704;52.006;4.374;2023-04-24T05:54:18;8.70;1.00
17178;DHT22;8704;52.006;4.374;2023-04-24T05:56:46;8.80;1.00
17178;DHT22;8704;52.006;4.374;2023-04-24T05:59:16;8.80;1.00
17178;DHT22;8704;52.006;4.374;2023-04-24T06:01:44;8.80;1.00
17178;DHT22;8704;52.006;4.374;2023-04-24T06:04:12;8.80;1.00
17178;DHT22;8704;52.006;4.374;2023-04-24T06:06:41;8.80;1.00
17178;DHT22;8704;52.006;4.374;2023-04-24T06:09:09;8.70;1.00
17178;DHT22;8704;52.006;4.374;2023-04-24T06:11:38;8.70;1.00
17178;DHT22;8704;52.006;4.374;2023-04-24T06:14:06;8.70;1.00
17178;DHT22;8704;52.006;4.374;2023-04-24T06:16:35;8.70;1.00
17178;DHT22;8704;52.006;4.374;2023-04-24T06:19:05;8.70;1.00
17178;DHT22;8704;52.006;4.374;2023-04-24T06:21:33;8.70;1.00
17178;DHT22;8704;52.006;4.374;2023-04-24T06:24:01;8.70;1.00
17178;DHT22;8704;52.006;4.374;2023-04-24T06:26:30;8.70;1.00
17178;DHT22;8704;52.006;4.374;2023-04-24T06:28:58;8.70;99.90
17178;DHT22;8704;52.006;4.374;2023-04-24T06:31:26;8.70;99.90
17178;DHT22;8704;52.006;4.374;2023-04-24T06:33:56;8.70;1.00
17178;DHT22;8704;52.006;4.374;2023-04-24T06:36:24;8.70;1.00
17178;DHT22;8704;52.006;4.374;2023-04-24T06:38:52;8.70;1.00
17178;DHT22;8704;52.006;4.374;2023-04-24T06:41:20;8.70;1.00
17178;DHT22;8704;52.006;4.374;2023-04-24T06:43:48;8.70;1.00
17178;DHT22;8704;52.006;4.374;2023-04-24T06:46:16;8.70;1.00
17178;DHT22;8704;52.006;4.374;2023-04-24T06:48:44;8.70;1.00
17178;DHT22;8704;52.006;4.374;2023-04-24T06:51:13;8.70;1.00
17178;DHT22;8704;52.006;4.374;2023-04-24T06:53:42;8.80;1.00
17178;DHT22;8704;52.006;4.374;2023-04-24T06:56:10;8.70;99.90
17178;DHT22;8704;52.006;4.374;2023-04-24T06:58:38;8.80;99.90
17178;DHT22;8704;52.006;4.374;2023-04-24T07:01:06;8.80;99.90
17178;DHT22;8704;52.006;4.374;2023-04-24T07:03:34;8.80;99.90
17178;DHT22;8704;52.006;4.374;2023-04-24T07:06:02;8.80;99.90
17178;DHT22;8704;52.006;4.374;2023-04-24T07:08:32;8.80;99.90
17178;DHT22;8704;52.006;4.374;2023-04-24T07:11:00;8.80;99.90
17178;DHT22;8704;52.006;4.374;2023-04-24T07:13:28;8.80;99.90
17178;DHT22;8704;52.006;4.374;2023-04-24T07:15:56;8.80;99.90
17178;DHT22;8704;52.006;4.374;2023-04-24T07:18:24;8.80;99.90
17178;DHT22;8704;52.006;4.374;2023-04-24T07:20:52;8.90;99.90
17178;DHT22;8704;52.006;4.374;2023-04-24T07:23:20;8.80;70.50
17178;DHT22;8704;52.006;4.374;2023-04-24T07:25:50;8.80;91.40
17178;DHT22;8704;52.006;4.374;2023-04-24T07:28:18;8.80;92.70
17178;DHT22;8704;52.006;4.374;2023-04-24T07:30:46;8.80;49.90
17178;DHT22;8704;52.006;4.374;2023-04-24T07:33:14;8.80;11.20
17178;DHT22;8704;52.006;4.374;2023-04-24T07:35:42;9.20;26.00
17178;DHT22;8704;52.006;4.374;2023-04-24T07:38:10;8.90;19.00
17178;DHT22;8704;52.006;4.374;2023-04-24T07:40:38;8.90;1.00
17178;DHT22;8704;52.006;4.374;2023-04-24T07:43:07;9.50;1.20
17178;DHT22;8704;52.006;4.374;2023-04-24T07:45:35;9.50;1.00
17178;DHT22;8704;52.006;4.374;2023-04-24T07:48:04;8.90;1.00
17178;DHT22;8704;52.006;4.374;2023-04-24T07:50:32;9.30;1.00
17178;DHT22;8704;52.006;4.374;2023-04-24T07:53:01;8.80;1.00
17178;DHT22;8704;52.006;4.374;2023-04-24T07:55:29;8.80;1.00
17178;DHT22;8704;52.006;4.374;2023-04-24T07:57:58;8.90;1.00
17178;DHT22;8704;52.006;4.374;2023-04-24T08:00:27;8.90;1.00
17178;DHT22;8704;52.006;4.374;2023-04-24T08:02:55;8.90;1.00
17178;DHT22;8704;52.006;4.374;2023-04-24T08:05:23;8.90;1.00
17178;DHT22;8704;52.006;4.374;2023-04-24T08:07:54;8.80;1.00
17178;DHT22;8704;52.006;4.374;2023-04-24T08:10:22;8.80;1.00
17178;DHT22;8704;52.006;4.374;2023-04-24T08:12:51;8.80;1.00
17178;DHT22;8704;52.006;4.374;2023-04-24T08:15:19;8.80;1.00
17178;DHT22;8704;52.006;4.374;2023-04-24T08:17:48;8.80;1.00
17178;DHT22;8704;52.006;4.374;2023-04-24T08:20:16;8.90;1.00
17178;DHT22;8704;52.006;4.374;2023-04-24T08:22:44;9.00;1.00
17178;DHT22;8704;52.006;4.374;2023-04-24T08:25:13;9.00;1.00
17178;DHT22;8704;52.006;4.374;2023-04-24T08:27:41;9.00;1.00
17178;DHT22;8704;52.006;4.374;2023-04-24T08:30:10;8.90;1.00
17178;DHT22;8704;52.006;4.374;2023-04-24T08:32:38;8.90;1.00
17178;DHT22;8704;52.006;4.374;2023-04-24T08:35:08;8.90;1.00
17178;DHT22;8704;52.006;4.374;2023-04-24T08:37:37;9.00;1.00
17178;DHT22;8704;52.006;4.374;2023-04-24T08:40:09;8.90;1.00
17178;DHT22;8704;52.006;4.374;2023-04-24T08:42:39;8.90;1.00
17178;DHT22;8704;52.006;4.374;2023-04-24T08:45:10;9.00;1.00
17178;DHT22;8704;52.006;4.374;2023-04-24T08:47:39;8.90;1.00
17178;DHT22;8704;52.006;4.374;2023-04-24T08:50:10;8.80;1.00
17178;DHT22;8704;52.006;4.374;2023-04-24T08:52:38;8.90;1.00
17178;DHT22;8704;52.006;4.374;2023-04-24T08:55:07;8.90;1.00
17178;DHT22;8704;52.006;4.374;2023-04-24T08:57:36;8.90;1.00
17178;DHT22;8704;52.006;4.374;2023-04-24T09:00:07;8.90;1.00
17178;DHT22;8704;52.006;4.374;2023-04-24T09:02:41;8.90;1.00
17178;DHT22;8704;52.006;4.374;2023-04-24T09:05:13;8.90;1.00
17178;DHT22;8704;52.006;4.374;2023-04-24T09:07:45;8.80;1.00
17178;DHT22;8704;52.006;4.374;2023-04-24T09:10:15;8.80;1.00
17178;DHT22;8704;52.006;4.374;2023-04-24T09:12:44;8.90;1.00
17178;DHT22;8704;52.006;4.374;2023-04-24T09:15:12;9.00;1.00
17178;DHT22;8704;52.006;4.374;2023-04-24T09:17:40;9.30;1.00
17178;DHT22;8704;52.006;4.374;2023-04-24T09:20:09;9.10;1.00
17178;DHT22;8704;52.006;4.374;2023-04-24T09:22:38;9.20;1.00
17178;DHT22;8704;52.006;4.374;2023-04-24T09:25:08;9.50;1.00
17178;DHT22;8704;52.006;4.374;2023-04-24T09:27:42;9.40;1.00
17178;DHT22;8704;52.006;4.374;2023-04-24T09:30:12;9.40;1.00
17178;DHT22;8704;52.006;4.374;2023-04-24T09:32:40;9.50;1.00
17178;DHT22;8704;52.006;4.374;2023-04-24T09:35:10;9.70;1.00
17178;DHT22;8704;52.006;4.374;2023-04-24T09:37:41;9.70;1.00
17178;DHT22;8704;52.006;4.374;2023-04-24T09:40:14;9.80;1.00
17178;DHT22;8704;52.006;4.374;2023-04-24T09:42:44;9.80;1.00
17178;DHT22;8704;52.006;4.374;2023-04-24T09:45:13;10.00;1.00
17178;DHT22;8704;52.006;4.374;2023-04-24T09:47:42;9.80;1.00
17178;DHT22;8704;52.006;4.374;2023-04-24T09:50:15;10.00;1.00
17178;DHT22;8704;52.006;4.374;2023-04-24T09:52:55;9.80;1.00
17178;DHT22;8704;52.006;4.374;2023-04-24T09:55:24;9.80;1.00
17178;DHT22;8704;52.006;4.374;2023-04-24T09:57:55;9.80;1.00
17178;DHT22;8704;52.006;4.374;2023-04-24T10:00:24;9.80;1.00
17178;DHT22;8704;52.006;4.374;2023-04-24T10:02:57;9.80;1.00
17178;DHT22;8704;52.006;4.374;2023-04-24T10:05:30;9.90;1.00
17178;DHT22;8704;52.006;4.374;2023-04-24T10:08:04;9.80;1.00
17178;DHT22;8704;52.006;4.374;2023-04-24T10:10:38;9.90;1.00
17178;DHT22;8704;52.006;4.374;2023-04-24T10:13:07;9.90;1.00
17178;DHT22;8704;52.006;4.374;2023-04-24T10:15:37;9.80;1.00
17178;DHT22;8704;52.006;4.374;2023-04-24T10:18:06;9.90;1.00
17178;DHT22;8704;52.006;4.374;2023-04-24T10:20:35;9.90;1.00
17178;DHT22;8704;52.006;4.374;2023-04-24T10:23:05;9.90;1.00
17178;DHT22;8704;52.006;4.374;2023-04-24T10:25:34;9.80;1.00
17178;DHT22;8704;52.006;4.374;2023-04-24T10:28:03;9.80;1.00
17178;DHT22;8704;52.006;4.374;2023-04-24T10:30:35;9.70;1.00
17178;DHT22;8704;52.006;4.374;2023-04-24T10:33:04;9.80;1.00
17178;DHT22;8704;52.006;4.374;2023-04-24T10:35:34;9.60;1.00
17178;DHT22;8704;52.006;4.374;2023-04-24T10:38:05;9.70;1.00
17178;DHT22;8704;52.006;4.374;2023-04-24T10:40:35;9.70;1.00
17178;DHT22;8704;52.006;4.374;2023-04-24T10:43:04;9.90;1.00
17178;DHT22;8704;52.006;4.374;2023-04-24T10:45:35;10.10;1.00
17178;DHT22;8704;52.006;4.374;2023-04-24T10:48:05;10.10;1.00
17178;DHT22;8704;52.006;4.374;2023-04-24T10:50:46;10.10;1.00
17178;DHT22;8704;52.006;4.374;2023-04-24T10:53:17;10.20;1.00
17178;DHT22;8704;52.006;4.374;2023-04-24T10:55:47;10.10;1.00
17178;DHT22;8704;52.006;4.374;2023-04-24T10:58:16;10.00;1.00
17178;DHT22;8704;52.006;4.374;2023-04-24T11:00:56;10.10;1.00
17178;DHT22;8704;52.006;4.374;2023-04-24T11:03:26;10.20;1.00
17178;DHT22;8704;52.006;4.374;2023-04-24T11:06:00;10.20;1.00
17178;DHT22;8704;52.006;4.374;2023-04-24T11:08:32;10.30;1.00
17178;DHT22;8704;52.006;4.374;2023-04-24T11:11:03;10.50;1.00
17178;DHT22;8704;52.006;4.374;2023-04-24T11:14:06;10.70;1.00
17178;DHT22;8704;52.006;4.374;2023-04-24T11:16:35;10.80;1.00
17178;DHT22;8704;52.006;4.374;2023-04-24T11:19:07;10.90;1.00
17178;DHT22;8704;52.006;4.374;2023-04-24T11:21:42;10.90;1.00
17178;DHT22;8704;52.006;4.374;2023-04-24T11:24:31;11.00;1.00
17178;DHT22;8704;52.006;4.374;2023-04-24T11:27:06;10.90;1.00
17178;DHT22;8704;52.006;4.374;2023-04-24T11:29:39;10.90;1.00
17178;DHT22;8704;52.006;4.374;2023-04-24T11:32:34;10.90;1.00
17178;DHT22;8704;52.006;4.374;2023-04-24T11:35:04;11.00;1.00
17178;DHT22;8704;52.006;4.374;2023-04-24T11:37:35;11.00;1.00
17178;DHT22;8704;52.006;4.374;2023-04-24T11:40:07;10.90;1.00
17178;DHT22;8704;52.006;4.374;2023-04-24T11:42:36;10.90;1.00
17178;DHT22;8704;52.006;4.374;2023-04-24T11:45:08;11.10;1.00
17178;DHT22;8704;52.006;4.374;2023-04-24T11:47:38;11.10;1.00
17178;DHT22;8704;52.006;4.374;2023-04-24T11:50:07;11.20;1.00
17178;DHT22;8704;52.006;4.374;2023-04-24T11:52:37;11.30;1.00
17178;DHT22;8704;52.006;4.374;2023-04-24T11:55:12;11.30;1.00
17178;DHT22;8704;52.006;4.374;2023-04-24T11:57:53;11.20;1.00
17178;DHT22;8704;52.006;4.374;2023-04-24T12:00:25;11.10;1.00
17178;DHT22;8704;52.006;4.374;2023-04-24T12:03:04;11.10;1.00
17178;DHT22;8704;52.006;4.374;2023-04-24T12:05:33;11.10;1.00
17178;DHT22;8704;52.006;4.374;2023-04-24T12:08:03;10.90;1.00
17178;DHT22;8704;52.006;4.374;2023-04-24T12:10:33;10.70;1.00
17178;DHT22;8704;52.006;4.374;2023-04-24T12:13:02;10.50;1.00
17178;DHT22;8704;52.006;4.374;2023-04-24T12:15:30;10.60;1.00
17178;DHT22;8704;52.006;4.374;2023-04-24T12:17:59;10.70;1.00
17178;DHT22;8704;52.006;4.374;2023-04-24T12:20:28;10.70;1.00
17178;DHT22;8704;52.006;4.374;2023-04-24T12:22:58;10.80;1.00
17178;DHT22;8704;52.006;4.374;2023-04-24T12:25:29;10.80;1.00
17178;DHT22;8704;52.006;4.374;2023-04-24T12:28:11;10.80;1.00
17178;DHT22;8704;52.006;4.374;2023-04-24T12:30:41;11.20;1.00
17178;DHT22;8704;52.006;4.374;2023-04-24T12:33:11;11.10;1.00
17178;DHT22;8704;52.006;4.374;2023-04-24T12:35:40;10.90;1.00
17178;DHT22;8704;52.006;4.374;2023-04-24T12:38:09;10.80;1.00
17178;DHT22;8704;52.006;4.374;2023-04-24T12:40:39;11.10;1.00
17178;DHT22;8704;52.006;4.374;2023-04-24T12:43:15;11.30;1.00
17178;DHT22;8704;52.006;4.374;2023-04-24T12:45:43;11.20;1.00
17178;DHT22;8704;52.006;4.374;2023-04-24T12:48:12;11.10;1.00
17178;DHT22;8704;52.006;4.374;2023-04-24T12:50:42;11.10;1.00
17178;DHT22;8704;52.006;4.374;2023-04-24T12:53:13;11.20;1.00
17178;DHT22;8704;52.006;4.374;2023-04-24T12:55:41;11.30;1.00
17178;DHT22;8704;52.006;4.374;2023-04-24T12:58:11;11.20;1.00
17178;DHT22;8704;52.006;4.374;2023-04-24T13:00:40;11.10;1.00
17178;DHT22;8704;52.006;4.374;2023-04-24T13:03:10;11.10;1.00
17178;DHT22;8704;52.006;4.374;2023-04-24T13:05:38;10.90;1.00
17178;DHT22;8704;52.006;4.374;2023-04-24T13:08:06;11.10;1.00
17178;DHT22;8704;52.006;4.374;2023-04-24T13:10:34;10.70;1.00
17178;DHT22;8704;52.006;4.374;2023-04-24T13:13:03;10.70;1.00
17178;DHT22;8704;52.006;4.374;2023-04-24T13:15:31;10.80;1.00
17178;DHT22;8704;52.006;4.374;2023-04-24T13:18:00;10.80;1.00
17178;DHT22;8704;52.006;4.374;2023-04-24T13:20:28;10.90;1.00
17178;DHT22;8704;52.006;4.374;2023-04-24T13:22:56;11.20;1.00
17178;DHT22;8704;52.006;4.374;2023-04-24T13:25:24;11.40;1.00
17178;DHT22;8704;52.006;4.374;2023-04-24T13:27:53;11.40;1.00
17178;DHT22;8704;52.006;4.374;2023-04-24T13:30:21;11.70;1.00
17178;DHT22;8704;52.006;4.374;2023-04-24T13:32:49;11.60;1.00
17178;DHT22;8704;52.006;4.374;2023-04-24T13:35:19;11.60;1.00
17178;DHT22;8704;52.006;4.374;2023-04-24T13:37:47;11.60;1.00
17178;DHT22;8704;52.006;4.374;2023-04-24T13:40:15;11.80;1.00
17178;DHT22;8704;52.006;4.374;2023-04-24T13:42:43;11.90;1.00
17178;DHT22;8704;52.006;4.374;2023-04-24T13:45:11;11.80;1.00
17178;DHT22;8704;52.006;4.374;2023-04-24T13:47:51;11.80;1.00
17178;DHT22;8704;52.006;4.374;2023-04-24T13:50:21;12.10;1.00
17178;DHT22;8704;52.006;4.374;2023-04-24T13:52:49;12.20;1.00
17178;DHT22;8704;52.006;4.374;2023-04-24T13:55:17;12.30;1.00
17178;DHT22;8704;52.006;4.374;2023-04-24T13:57:46;12.40;1.00
17178;DHT22;8704;52.006;4.374;2023-04-24T14:00:14;12.50;1.00
17178;DHT22;8704;52.006;4.374;2023-04-24T14:02:43;12.50;1.00
17178;DHT22;8704;52.006;4.374;2023-04-24T14:05:12;12.30;1.00
17178;DHT22;8704;52.006;4.374;2023-04-24T14:07:42;12.20;1.00
17178;DHT22;8704;52.006;4.374;2023-04-24T14:10:10;12.10;1.00
17178;DHT22;8704;52.006;4.374;2023-04-24T14:12:38;11.50;1.00
17178;DHT22;8704;52.006;4.374;2023-04-24T14:15:07;11.30;1.00
17178;DHT22;8704;52.006;4.374;2023-04-24T14:17:36;11.50;1.00
17178;DHT22;8704;52.006;4.374;2023-04-24T14:20:05;11.50;1.00
17178;DHT22;8704;52.006;4.374;2023-04-24T14:22:33;11.50;1.00
17178;DHT22;8704;52.006;4.374;2023-04-24T14:25:03;11.60;1.00
17178;DHT22;8704;52.006;4.374;2023-04-24T14:27:32;11.60;1.00
17178;DHT22;8704;52.006;4.374;2023-04-24T14:30:01;11.50;1.00
17178;DHT22;8704;52.006;4.374;2023-04-24T14:32:29;11.50;1.00
17178;DHT22;8704;52.006;4.374;2023-04-24T14:34:57;11.20;1.00
17178;DHT22;8704;52.006;4.374;2023-04-24T14:37:25;11.20;1.00
17178;DHT22;8704;52.006;4.374;2023-04-24T14:39:53;11.30;1.00
17178;DHT22;8704;52.006;4.374;2023-04-24T14:42:43;11.50;1.00
17178;DHT22;8704;52.006;4.374;2023-04-24T14:45:11;11.50;1.00
17178;DHT22;8704;52.006;4.374;2023-04-24T14:47:39;11.70;1.00
17178;DHT22;8704;52.006;4.374;2023-04-24T14:50:09;11.80;1.00
17178;DHT22;8704;52.006;4.374;2023-04-24T14:52:37;11.80;1.00
17178;DHT22;8704;52.006;4.374;2023-04-24T14:55:06;11.70;1.00
17178;DHT22;8704;52.006;4.374;2023-04-24T14:57:34;11.50;1.00
17178;DHT22;8704;52.006;4.374;2023-04-24T15:00:05;11.30;99.90
17178;DHT22;8704;52.006;4.374;2023-04-24T15:02:35;11.20;99.90
17178;DHT22;8704;52.006;4.374;2023-04-24T15:05:07;11.30;1.00
17178;DHT22;8704;52.006;4.374;2023-04-24T15:07:36;11.50;1.00
17178;DHT22;8704;52.006;4.374;2023-04-24T15:10:05;11.50;1.00
17178;DHT22;8704;52.006;4.374;2023-04-24T15:12:33;11.60;1.00
17178;DHT22;8704;52.006;4.374;2023-04-24T15:15:01;11.60;1.00
17178;DHT22;8704;52.006;4.374;2023-04-24T15:17:31;11.60;1.00
17178;DHT22;8704;52.006;4.374;2023-04-24T15:19:59;11.40;1.00
17178;DHT22;8704;52.006;4.374;2023-04-24T15:22:27;11.20;1.00
17178;DHT22;8704;52.006;4.374;2023-04-24T15:24:55;11.20;1.00
17178;DHT22;8704;52.006;4.374;2023-04-24T15:27:23;11.60;1.00
17178;DHT22;8704;52.006;4.374;2023-04-24T15:29:51;11.80;1.00
17178;DHT22;8704;52.006;4.374;2023-04-24T15:32:20;11.80;1.00
17178;DHT22;8704;52.006;4.374;2023-04-24T15:34:49;12.00;1.00
17178;DHT22;8704;52.006;4.374;2023-04-24T15:37:33;12.10;1.00
17178;DHT22;8704;52.006;4.374;2023-04-24T15:40:02;12.30;1.00
17178;DHT22;8704;52.006;4.374;2023-04-24T15:42:32;12.40;1.00
17178;DHT22;8704;52.006;4.374;2023-04-24T15:45:00;12.30;1.00
17178;DHT22;8704;52.006;4.374;2023-04-24T15:47:28;12.00;1.00
17178;DHT22;8704;52.006;4.374;2023-04-24T15:49:57;11.80;1.00
17178;DHT22;8704;52.006;4.374;2023-04-24T15:52:25;11.60;1.00
17178;DHT22;8704;52.006;4.374;2023-04-24T15:54:54;11.70;1.00
17178;DHT22;8704;52.006;4.374;2023-04-24T15:57:22;11.80;1.00
17178;DHT22;8704;52.006;4.374;2023-04-24T15:59:50;11.40;1.00
17178;DHT22;8704;52.006;4.374;2023-04-24T16:02:18;11.30;99.90
17178;DHT22;8704;52.006;4.374;2023-04-24T16:04:48;11.30;1.00
17178;DHT22;8704;52.006;4.374;2023-04-24T16:07:18;11.30;1.00
17178;DHT22;8704;52.006;4.374;2023-04-24T16:09:46;11.40;1.00
17178;DHT22;8704;52.006;4.374;2023-04-24T16:12:15;11.80;1.00
17178;DHT22;8704;52.006;4.374;2023-04-24T16:14:43;12.00;1.00
17178;DHT22;8704;52.006;4.374;2023-04-24T16:17:11;12.10;1.00
17178;DHT22;8704;52.006;4.374;2023-04-24T16:19:39;12.10;1.00